»·PEaware :: DAL89 KSLC-KLAX

DAL89 :: KSLC-KLAX

FLIGHT INFORMATION

Flight Status: Arrived
Operator:
Delta Air Lines
More flights by this operator :: More flights under this callsign
Pilot: Jac C. (16067)
Aircraft: AIRBUS A320
(A320)
More flights by this aircraft type
Origin: KSLC Salt Lake City Intl
United States
Destination: KLAX Los Angeles Intl
United States
More flights between these airports :: More routes between these airports
Route: EDETH5 BERYL LAKRR Q88 HAKMN ANJLL2
File this flight plan on PilotEdge
Remarks:
Altitude:
(Current/Filed)
38,000ft
Speed:
(Current/Filed)
430kts
Departed: 31-Jan-18 01:06 PM
Arrived: 31-Jan-18 02:31 PM
Distance/Time
Traveled:
512nm/1:25
Distance/Time
To Go:
Arrived

Flight Plot

Page will automatically refresh every two minutes.

Flight plan parsing failed; only flown route is shown


Map Options




Map Legend


Flown Route
Filed Route
Departure Airport
Arrival Airport
Navaid (VOR, NDB)
Fix

Horizontal Profiles

Position Reports

Time Latitude Longitude Heading Altitude Ground
Speed
31-Jan-18 12:19 40.789004 -111.981881 135 4236ft 0kts
31-Jan-18 12:20 40.789004 -111.981881 135 4236ft 0kts
31-Jan-18 12:21 40.789004 -111.981881 135 4236ft 0kts
31-Jan-18 12:22 40.789004 -111.981881 135 4236ft 0kts
31-Jan-18 12:23 40.789004 -111.981881 135 4236ft 0kts
31-Jan-18 12:24 40.789004 -111.981881 135 4236ft 0kts
31-Jan-18 12:25 40.789004 -111.981881 135 4236ft 0kts
31-Jan-18 12:26 40.789004 -111.981881 135 4236ft 0kts
31-Jan-18 12:27 40.789004 -111.981881 135 4236ft 0kts
31-Jan-18 12:28 40.789004 -111.981881 135 4236ft 0kts
31-Jan-18 12:29 40.789004 -111.981881 135 4236ft 0kts
31-Jan-18 12:30 40.789004 -111.981881 135 4236ft 0kts
31-Jan-18 12:31 40.789004 -111.981881 135 4236ft 0kts
31-Jan-18 12:32 40.789004 -111.981881 135 4236ft 0kts
31-Jan-18 12:33 40.789004 -111.981881 135 4236ft 0kts
31-Jan-18 12:34 40.789004 -111.981881 135 4236ft 0kts
31-Jan-18 12:35 40.789004 -111.981881 135 4236ft 0kts
31-Jan-18 12:36 40.789004 -111.981881 135 4236ft 0kts
31-Jan-18 12:37 40.789004 -111.981881 135 4236ft 0kts
31-Jan-18 12:38 40.789004 -111.981881 135 4236ft 0kts
31-Jan-18 12:39 40.789004 -111.981881 135 4236ft 0kts
31-Jan-18 12:40 40.789004 -111.981881 135 4236ft 0kts
31-Jan-18 12:41 40.789004 -111.981881 135 4236ft 0kts
31-Jan-18 12:42 40.789004 -111.981881 135 4236ft 0kts
31-Jan-18 12:43 40.789004 -111.981881 135 4236ft 0kts
31-Jan-18 12:44 40.789004 -111.981881 135 4236ft 0kts
31-Jan-18 12:45 40.789004 -111.981881 135 4236ft 0kts
31-Jan-18 12:46 40.789004 -111.981881 135 4236ft 0kts
31-Jan-18 12:47 40.789100 -111.982007 134 4236ft 2kts
31-Jan-18 12:48 40.789395 -111.982594 103 4236ft 2kts
31-Jan-18 12:49 40.789411 -111.983020 81 4236ft 0kts
31-Jan-18 12:50 40.789411 -111.983020 81 4236ft 0kts
31-Jan-18 12:51 40.789411 -111.983020 81 4236ft 0kts
31-Jan-18 12:52 40.789411 -111.983020 81 4236ft 0kts
31-Jan-18 12:53 40.789597 -111.982655 50 4236ft 5kts
31-Jan-18 12:54 40.790109 -111.979502 73 4236ft 11kts
31-Jan-18 12:55 40.789833 -111.977003 173 4236ft 6kts
31-Jan-18 12:56 40.787344 -111.976775 173 4236ft 11kts
31-Jan-18 12:57 40.783742 -111.976359 174 4236ft 15kts
31-Jan-18 12:58 40.779066 -111.975579 155 4236ft 16kts
31-Jan-18 12:59 40.774762 -111.974788 164 4236ft 5kts
31-Jan-18 13:00 40.774560 -111.973963 56 4236ft 9kts
31-Jan-18 13:01 40.777393 -111.973479 358 4236ft 17kts
31-Jan-18 13:02 40.780809 -111.975975 343 4236ft 16kts
31-Jan-18 13:03 40.782817 -111.978232 45 4236ft 3kts
31-Jan-18 13:04 40.782836 -111.978081 99 4236ft 0kts
31-Jan-18 13:05 40.782836 -111.978081 99 4236ft 0kts
31-Jan-18 13:06 40.782836 -111.978081 99 4236ft 0kts
31-Jan-18 13:07 40.782686 -111.977081 93 4236ft 5kts
31-Jan-18 13:08 40.778491 -111.975281 167 4236ft 14kts
31-Jan-18 13:09 40.774728 -111.974773 162 4236ft 0kts
31-Jan-18 13:10 40.774712 -111.974767 161 4236ft 1kts
31-Jan-18 13:11 40.775258 -111.973204 355 4236ft 9kts
31-Jan-18 13:12 40.809097 -111.985208 302 5969ft 176kts
31-Jan-18 13:13 40.819748 -112.061333 283 8763ft 254kts
31-Jan-18 13:14 40.821236 -112.154595 257 9999ft 262kts
31-Jan-18 13:15 40.794265 -112.242517 214 10008ft 284kts
31-Jan-18 13:16 40.718901 -112.283321 192 10917ft 302kts
31-Jan-18 13:17 40.635146 -112.300182 190 12981ft 321kts
31-Jan-18 13:18 40.545892 -112.315573 198 16812ft 325kts
31-Jan-18 13:19 40.453197 -112.335121 199 19708ft 348kts
31-Jan-18 13:20 40.356319 -112.355314 199 22511ft 361kts
31-Jan-18 13:21 40.266396 -112.408549 218 24372ft 370kts
31-Jan-18 13:22 40.174564 -112.473294 218 26453ft 384kts
31-Jan-18 13:23 40.079493 -112.540241 218 28357ft 396kts
31-Jan-18 13:24 39.981433 -112.609087 218 30054ft 407kts
31-Jan-18 13:25 39.881487 -112.679051 217 31456ft 421kts
31-Jan-18 13:26 39.777204 -112.751768 217 32783ft 433kts
31-Jan-18 13:27 39.668659 -112.822523 206 34102ft 452kts
31-Jan-18 13:28 39.546036 -112.863494 203 35612ft 455kts
31-Jan-18 13:29 39.424084 -112.903591 203 36931ft 454kts
31-Jan-18 13:30 39.301933 -112.943660 203 38020ft 456kts
31-Jan-18 13:31 39.179341 -112.983667 203 38176ft 455kts
31-Jan-18 13:32 39.057925 -113.022423 203 38178ft 455kts
31-Jan-18 13:33 38.935209 -113.061495 203 38177ft 455kts
31-Jan-18 13:34 38.813915 -113.099993 200 38133ft 458kts
31-Jan-18 13:35 38.689075 -113.139500 200 38101ft 469kts
31-Jan-18 13:36 38.561869 -113.179567 200 38185ft 475kts
31-Jan-18 13:37 38.433790 -113.219757 200 38200ft 478kts
31-Jan-18 13:38 38.304563 -113.260158 200 38198ft 478kts
31-Jan-18 13:39 38.176235 -113.300142 200 38181ft 477kts
31-Jan-18 13:40 38.047646 -113.340066 199 38151ft 476kts
31-Jan-18 13:41 37.919902 -113.379622 200 38162ft 475kts
31-Jan-18 13:42 37.798887 -113.437161 208 38153ft 466kts
31-Jan-18 13:43 37.678646 -113.498078 208 38143ft 466kts
31-Jan-18 13:44 37.558566 -113.558707 208 38152ft 466kts
31-Jan-18 13:45 37.438542 -113.619091 208 38172ft 468kts
31-Jan-18 13:46 37.318079 -113.679497 207 38181ft 469kts
31-Jan-18 13:47 37.197041 -113.739980 207 38192ft 471kts
31-Jan-18 13:48 37.075628 -113.800437 207 38196ft 471kts
31-Jan-18 13:49 36.954494 -113.860549 207 38189ft 471kts
31-Jan-18 13:50 36.833542 -113.920363 206 38176ft 470kts
31-Jan-18 13:51 36.712327 -113.980106 206 38161ft 469kts
31-Jan-18 13:52 36.591375 -114.039521 204 38153ft 470kts
31-Jan-18 13:53 36.469828 -114.099026 204 38169ft 471kts
31-Jan-18 13:54 36.348134 -114.158401 204 38183ft 471kts
31-Jan-18 13:55 36.226885 -114.217357 204 38187ft 472kts
31-Jan-18 13:56 36.105721 -114.277875 212 38137ft 469kts
31-Jan-18 13:57 36.013665 -114.385561 233 38134ft 455kts
31-Jan-18 13:58 35.929841 -114.501452 233 38093ft 455kts
31-Jan-18 13:59 35.851220 -114.609798 233 38093ft 454kts
31-Jan-18 14:00 35.767687 -114.724549 232 38099ft 455kts
31-Jan-18 14:01 35.683277 -114.840129 232 38117ft 456kts
31-Jan-18 14:02 35.598851 -114.955615 232 38130ft 456kts
31-Jan-18 14:03 35.514047 -115.071325 231 38140ft 456kts
31-Jan-18 14:04 35.427998 -115.184251 231 38124ft 455kts
31-Jan-18 14:05 35.341453 -115.296980 231 38070ft 456kts
31-Jan-18 14:06 35.256222 -115.407690 231 38091ft 457kts
31-Jan-18 14:07 35.169177 -115.520394 231 38109ft 459kts
31-Jan-18 14:08 35.082060 -115.632686 231 38151ft 457kts
31-Jan-18 14:09 34.995619 -115.743598 230 38154ft 458kts
31-Jan-18 14:10 34.908020 -115.855635 229 38120ft 459kts
31-Jan-18 14:11 34.822265 -115.964966 230 38078ft 463kts
31-Jan-18 14:12 34.733317 -116.078000 227 38136ft 468kts
31-Jan-18 14:13 34.642369 -116.193179 223 37806ft 476kts
31-Jan-18 14:14 34.552622 -116.306468 221 35756ft 448kts
31-Jan-18 14:15 34.469856 -116.410513 225 33015ft 416kts
31-Jan-18 14:16 34.400136 -116.517248 244 30978ft 401kts
31-Jan-18 14:17 34.351305 -116.635996 246 29013ft 389kts
31-Jan-18 14:18 34.307024 -116.744979 245 27194ft 380kts
31-Jan-18 14:19 34.261434 -116.858364 246 25190ft 373kts
31-Jan-18 14:20 34.216493 -116.969657 246 23187ft 365kts
31-Jan-18 14:21 34.184135 -117.082861 252 21220ft 352kts
31-Jan-18 14:22 34.154209 -117.192776 250 19303ft 341kts
31-Jan-18 14:23 34.124650 -117.300111 250 17154ft 338kts
31-Jan-18 14:24 34.095932 -117.406600 251 15211ft 330kts
31-Jan-18 14:25 34.068956 -117.510286 245 13410ft 319kts
31-Jan-18 14:26 34.034473 -117.606018 247 11678ft 306kts
31-Jan-18 14:27 34.005278 -117.698600 264 10166ft 288kts
31-Jan-18 14:28 33.996248 -117.792092 264 8787ft 278kts
31-Jan-18 14:29 33.987305 -117.883529 263 7335ft 273kts
31-Jan-18 14:30 33.978471 -117.973431 262 5943ft 267kts
31-Jan-18 14:31 33.969939 -118.059576 261 5036ft 244kts
31-Jan-18 14:32 33.962424 -118.134758 261 4640ft 216kts
31-Jan-18 14:33 33.955764 -118.206761 261 3520ft 215kts
31-Jan-18 14:34 33.948182 -118.270231 265 2378ft 173kts
31-Jan-18 14:35 33.943850 -118.323728 260 1111ft 150kts
31-Jan-18 14:36 33.938812 -118.368532 263 380ft 128kts
31-Jan-18 14:37 33.935670 -118.399429 263 117ft 34kts
31-Jan-18 14:38 33.936158 -118.403365 285 121ft 0kts
31-Jan-18 14:39 33.936158 -118.403365 285 121ft 0kts
31-Jan-18 14:40 33.936158 -118.403365 285 121ft 0kts
31-Jan-18 14:41 33.938269 -118.404163 45 123ft 8kts
31-Jan-18 14:42 33.938917 -118.400541 20 119ft 14kts
31-Jan-18 14:43 33.941650 -118.400230 81 118ft 3kts

Navigation Log

Ident Type
Flight plan parsing failed, navigation log unavailable